Edzard Schulte — 2CVX9 — position and weather

sailwx.info

Track history (hours):
 
Tides and Currents Weather Stations Pressure Air Temp Water Temp Dewpoint Dewpoint Depression Visibility Wind Speed Wind Dir Waves Ship Positions

Edzard Schulte

Last reported at 2017-Nov-17 18:27 UTC. Time now 2017-Nov-17 21:26 UTC.
Position N 55°58' W 001°50'.

Length 145 m; draft 6.3 m.

Type: Tanker. MMSI: 235076245.

Date/timePositionNaut miles runAvg speedWind from/ knotsBaromVisibWave heightAir tempDewpointWater temp
2017-Nov-17 18:27N 55°58' W 001°50'512.2
2017-Nov-17 18:01N 56°02' W 001°57'612.4
2017-Nov-17 17:31N 56°06' W 002°05'612.9
2017-Nov-17 17:01N 56°07' W 002°17'713.3
2017-Nov-17 16:30N 56°08' W 002°28'713.7
2017-Nov-17 16:01N 56°08' W 002°41'713.4
2017-Nov-17 15:31N 56°06' W 002°52'612.7
2017-Nov-17 15:00N 56°03' W 003°02'5 9.6
2017-Nov-17 14:31N 56°03' W 003°11'5 9.6
2017-Nov-17 14:01N 56°01' W 003°19'5 8.6
2017-Nov-17 13:28N 56°01' W 003°27'  
2017-Nov-14 20:33N 56°01' W 003°22'110.4
2017-Nov-14 20:30N 56°01' W 003°21'510.2
2017-Nov-14 20:00N 56°02' W 003°12'4 7.6
2017-Nov-14 19:31N 56°04' W 003°06'1 2.4
2017-Nov-14 18:59N 56°05' W 003°07'0 0.1
2017-Nov-14 18:29N 56°05' W 003°07'0 0.0
2017-Nov-14 17:59N 56°05' W 003°07'0 0.1
2017-Nov-14 17:29N 56°05' W 003°07'0 0.0
2017-Nov-14 17:00N 56°05' W 003°07'0 0.0
2017-Nov-14 16:29N 56°05' W 003°07'0 0.0
2017-Nov-14 15:59N 56°05' W 003°07'0 0.0
2017-Nov-14 15:29N 56°05' W 003°07'0 0.0
2017-Nov-14 14:59N 56°05' W 003°07'0 0.0
2017-Nov-14 14:29N 56°05' W 003°07'0 0.0
2017-Nov-14 13:59N 56°05' W 003°07'0 0.0
2017-Nov-14 13:29N 56°05' W 003°07'0 0.0
2017-Nov-14 12:59N 56°05' W 003°07'0 0.0
2017-Nov-14 12:29N 56°05' W 003°07'0 0.0
2017-Nov-14 11:59N 56°05' W 003°07'0 0.1
2017-Nov-14 11:29N 56°05' W 003°07'0 0.0
2017-Nov-14 10:59N 56°05' W 003°07'0 0.0
2017-Nov-14 10:29N 56°05' W 003°07'0 0.1
2017-Nov-14 09:59N 56°05' W 003°07'0 0.0
2017-Nov-14 09:29N 56°05' W 003°07'0 0.0
2017-Nov-14 08:59N 56°05' W 003°07'0 0.1
2017-Nov-14 08:29N 56°05' W 003°07'0 0.0
2017-Nov-14 07:59N 56°05' W 003°07'0 0.1
2017-Nov-14 07:29N 56°05' W 003°07'0 0.8
2017-Nov-14 07:00N 56°05' W 003°06'4 8.2
2017-Nov-14 06:30N 56°05' W 002°59'613.0
2017-Nov-14 06:00N 56°07' W 002°48'612.9
2017-Nov-14 05:30N 56°08' W 002°36'713.2
2017-Nov-14 05:00N 56°07' W 002°25'713.5
2017-Nov-14 04:30N 56°06' W 002°13'612.9
2017-Nov-14 04:00N 56°04' W 002°02'612.8
2017-Nov-14 03:30N 55°60' W 001°53'612.3
2017-Nov-14 03:00N 55°55' W 001°45'612.4
2017-Nov-14 02:30N 55°51' W 001°37'1111.9
2017-Nov-14 01:37N 55°44' W 001°23'212.1
2017-Nov-14 01:29N 55°43' W 001°21'278 8.1
2017-Nov-12 15:05N 52°07' E 003°37'110.5
2017-Nov-12 15:00N 52°07' E 003°38'510.7
2017-Nov-12 14:30N 52°04' E 003°46'5 9.7
2017-Nov-12 14:00N 52°02' E 003°53'2 4.8
2017-Nov-12 13:30N 52°02' E 003°57'4 7.6
2017-Nov-12 13:00N 51°60' E 004°02'5 9.9
2017-Nov-12 12:30N 51°58' E 004°09'510.3
2017-Nov-12 12:00N 51°54' E 004°16'2 4.6
2017-Nov-12 11:30N 51°53' E 004°18'0 0.6
2017-Nov-12 10:58N 51°53' E 004°18'0 0.0
2017-Nov-12 10:28N 51°53' E 004°18'0 0.0
2017-Nov-12 09:58N 51°53' E 004°18'0 0.0
2017-Nov-12 09:28N 51°53' E 004°18'0 0.0
2017-Nov-12 08:55N 51°53' E 004°18'0 0.0
2017-Nov-12 08:25N 51°53' E 004°18'0 0.0
2017-Nov-12 08:01N 51°53' E 004°18'0 0.0
2017-Nov-12 07:25N 51°53' E 004°18'0 0.0
2017-Nov-12 06:52N 51°53' E 004°18'0 0.0
2017-Nov-12 06:31N 51°53' E 004°18'0 0.0
2017-Nov-12 05:58N 51°53' E 004°18'0 0.0
2017-Nov-12 05:31N 51°53' E 004°18'0 0.0
2017-Nov-12 05:01N 51°53' E 004°18'0 0.0
2017-Nov-12 04:31N 51°53' E 004°18'0 0.0
2017-Nov-12 03:55N 51°53' E 004°18'0 0.0
2017-Nov-12 03:19N 51°53' E 004°18'0 0.0
2017-Nov-12 03:00N 51°53' E 004°18'0 0.0
2017-Nov-12 02:30N 51°53' E 004°18'0 0.0
2017-Nov-12 01:55N 51°53' E 004°18'0 0.0
2017-Nov-12 01:30N 51°53' E 004°18'1 1.2
2017-Nov-12 01:00N 51°53' E 004°19'0 0.4
2017-Nov-12 00:30N 51°53' E 004°19'0 0.0
2017-Nov-11 23:57N 51°53' E 004°19'0 0.0
2017-Nov-11 23:30N 51°53' E 004°19'0 0.0
2017-Nov-11 22:57N 51°53' E 004°19'0 0.0
2017-Nov-11 22:21N 51°53' E 004°19'0 0.0
2017-Nov-11 21:57N 51°53' E 004°19'0 0.0
2017-Nov-11 21:21N 51°53' E 004°19'0 0.0
2017-Nov-11 20:57N 51°53' E 004°19'0 0.0
2017-Nov-11 20:30N 51°53' E 004°19'0 0.0
2017-Nov-11 20:00N 51°53' E 004°19'0 0.0
2017-Nov-11 19:27N 51°53' E 004°19'0 0.0
2017-Nov-11 18:57N 51°53' E 004°19'0 0.0
2017-Nov-11 18:21N 51°53' E 004°19'0 0.0
2017-Nov-11 17:57N 51°53' E 004°19'0 0.0
2017-Nov-11 17:27N 51°53' E 004°19'0 0.0
2017-Nov-11 16:51N 51°53' E 004°19'0 0.0
2017-Nov-11 16:21N 51°53' E 004°19'0 0.0
2017-Nov-11 15:57N 51°53' E 004°19'0 0.0
2017-Nov-11 15:21N 51°53' E 004°19'0 0.0
2017-Nov-11 14:51N 51°53' E 004°19'0 0.0
2017-Nov-11 14:21N 51°53' E 004°19'0 0.0
2017-Nov-11 14:00N 51°53' E 004°19'0 0.0
2017-Nov-11 13:27N 51°53' E 004°19'0 0.0
2017-Nov-11 12:51N 51°53' E 004°19'0 0.0
2017-Nov-11 12:27N 51°53' E 004°19'0 0.0
2017-Nov-11 11:57N 51°53' E 004°19'0 0.0
2017-Nov-11 11:15N 51°53' E 004°19'0 0.0
2017-Nov-11 10:51N 51°53' E 004°19'0 0.0
2017-Nov-11 10:27N 51°53' E 004°19'0 0.0
2017-Nov-11 09:57N 51°53' E 004°19'0 0.0
2017-Nov-11 09:27N 51°53' E 004°19'0 0.0
2017-Nov-11 09:00N 51°53' E 004°19'0 0.0
2017-Nov-11 08:30N 51°53' E 004°19'0 0.0
2017-Nov-11 07:57N 51°53' E 004°19'0 0.0
2017-Nov-11 07:27N 51°53' E 004°19'0 0.0
2017-Nov-11 06:57N 51°53' E 004°19'0 0.0
2017-Nov-11 06:21N 51°53' E 004°19'0 0.0
2017-Nov-11 05:57N 51°53' E 004°19'0 0.0
2017-Nov-11 05:21N 51°53' E 004°19'0 0.0
2017-Nov-11 05:00N 51°53' E 004°19'0 0.0
2017-Nov-11 04:00N 51°53' E 004°19'0 0.0
2017-Nov-11 03:27N 51°53' E 004°19'0 0.0
2017-Nov-11 02:54N 51°53' E 004°19'0 0.0
2017-Nov-11 02:30N 51°53' E 004°19'0 0.0
2017-Nov-11 01:51N 51°53' E 004°19'0 0.0
2017-Nov-11 01:15N 51°53' E 004°19'0 0.0
2017-Nov-11 00:57N 51°53' E 004°19'0 0.0
2017-Nov-11 00:30N 51°53' E 004°19'0 0.0
2017-Nov-10 23:45N 51°53' E 004°19'0 0.0
2017-Nov-10 23:30N 51°53' E 004°19'0 0.0
2017-Nov-10 22:39N 51°53' E 004°19'0 0.0
2017-Nov-10 22:27N 51°53' E 004°19'0 0.0
2017-Nov-10 21:51N 51°53' E 004°19'0 0.0
2017-Nov-10 21:30N 51°53' E 004°19'0 0.0
2017-Nov-10 21:00N 51°53' E 004°19'0 0.0
2017-Nov-10 20:21N 51°53' E 004°19'0 0.0
2017-Nov-10 19:51N 51°53' E 004°19'0 0.0
2017-Nov-10 19:27N 51°53' E 004°19'0 0.0
2017-Nov-10 18:45N 51°53' E 004°19'0 0.0
2017-Nov-10 18:30N 51°53' E 004°19'0 0.0
2017-Nov-10 17:51N 51°53' E 004°19'0 0.0
2017-Nov-10 17:27N 51°53' E 004°19'1 2.1
2017-Nov-10 17:00N 51°53' E 004°18'3 6.9
2017-Nov-10 16:30N 51°55' E 004°14'4 9.0
2017-Nov-10 16:00N 51°58' E 004°08'4 8.4
2017-Nov-10 15:30N 51°60' E 004°02'4 7.6
2017-Nov-10 15:00N 52°00' E 003°56'4 8.2
2017-Nov-10 14:30N 52°02' E 003°49'0 0.9
2017-Nov-10 14:00N 52°02' E 003°49'3 5.5
2017-Nov-10 13:30N 52°04' E 003°48'4 7.4
2017-Nov-10 13:00N 52°08' E 003°46'3 2.9
2017-Nov-10 12:03N 52°10' E 003°44'0 0.4
2017-Nov-10 11:57N 52°10' E 003°44'0 0.0
2017-Nov-10 11:30N 52°10' E 003°44'0 0.1
2017-Nov-10 10:57N 52°10' E 003°44'0 0.0
2017-Nov-10 10:24N 52°10' E 003°44'0 0.1
2017-Nov-10 10:00N 52°10' E 003°44'0 0.1
2017-Nov-10 08:39N 52°10' E 003°44'0 0.0
2017-Nov-10 07:21N 52°10' E 003°44'0 0.0
2017-Nov-10 06:39N 52°10' E 003°44'0 0.0
2017-Nov-10 06:15N 52°10' E 003°44'0 0.0
2017-Nov-10 06:00N 52°10' E 003°44'0 0.0
2017-Nov-10 05:30N 52°10' E 003°44'0 0.1
2017-Nov-10 03:03N 52°10' E 003°44'0 0.0
2017-Nov-09 20:09N 52°10' E 003°44'0 0.0
2017-Nov-09 19:51N 52°10' E 003°44'0 0.0
2017-Nov-09 18:45N 52°10' E 003°44'0 0.0
2017-Nov-09 16:45N 52°10' E 003°44'0 0.1
2017-Nov-09 16:24N 52°10' E 003°44'0 0.0
2017-Nov-09 11:03N 52°10' E 003°44'0 0.2
2017-Nov-09 10:36N 52°10' E 003°44'0 0.2
2017-Nov-09 10:30N 52°10' E 003°44'0 0.1
2017-Nov-09 10:00N 52°10' E 003°44'0 0.0
2017-Nov-09 07:33N 52°10' E 003°44'0 0.0
2017-Nov-09 05:42N 52°11' E 003°44'0 0.0
2017-Nov-09 03:54N 52°10' E 003°44'0 0.0
2017-Nov-08 17:27N 52°10' E 003°44'0 0.0
2017-Nov-08 16:45N 52°10' E 003°44'0 0.0
2017-Nov-08 04:03N 52°10' E 003°44'0 0.1
2017-Nov-08 03:42N 52°10' E 003°44'0 0.0
2017-Nov-08 03:27N 52°10' E 003°44'0 0.2
2017-Nov-08 02:06N 52°10' E 003°44'1 5.8
2017-Nov-08 01:59N 52°10' E 003°43'  
Track history (hours):
 
Tides and Currents Weather Stations Pressure Air Temp Water Temp Dewpoint Dewpoint Depression Visibility Wind Speed Wind Dir Waves Ship Positions

Edzard Schulte

Last reported at 2017-Nov-17 18:27 UTC. Time now 2017-Nov-17 21:26 UTC.
Position N 55°58' W 001°50'.

Length 145 m; draft 6.3 m.

Type: Tanker. MMSI: 235076245.

Date/timePositionNaut miles runAvg speedWind from/ knotsBaromVisibWave heightAir tempDewpointWater temp
2017-Nov-17 18:27N 55°58' W 001°50'512.2
2017-Nov-17 18:01N 56°02' W 001°57'612.4
2017-Nov-17 17:31N 56°06' W 002°05'612.9
2017-Nov-17 17:01N 56°07' W 002°17'713.3
2017-Nov-17 16:30N 56°08' W 002°28'713.7
2017-Nov-17 16:01N 56°08' W 002°41'713.4
2017-Nov-17 15:31N 56°06' W 002°52'612.7
2017-Nov-17 15:00N 56°03' W 003°02'5 9.6
2017-Nov-17 14:31N 56°03' W 003°11'5 9.6
2017-Nov-17 14:01N 56°01' W 003°19'5 8.6
2017-Nov-17 13:28N 56°01' W 003°27'  
2017-Nov-14 20:33N 56°01' W 003°22'110.4
2017-Nov-14 20:30N 56°01' W 003°21'510.2
2017-Nov-14 20:00N 56°02' W 003°12'4 7.6
2017-Nov-14 19:31N 56°04' W 003°06'1 2.4
2017-Nov-14 18:59N 56°05' W 003°07'0 0.1
2017-Nov-14 18:29N 56°05' W 003°07'0 0.0
2017-Nov-14 17:59N 56°05' W 003°07'0 0.1
2017-Nov-14 17:29N 56°05' W 003°07'0 0.0
2017-Nov-14 17:00N 56°05' W 003°07'0 0.0
2017-Nov-14 16:29N 56°05' W 003°07'0 0.0
2017-Nov-14 15:59N 56°05' W 003°07'0 0.0
2017-Nov-14 15:29N 56°05' W 003°07'0 0.0
2017-Nov-14 14:59N 56°05' W 003°07'0 0.0
2017-Nov-14 14:29N 56°05' W 003°07'0 0.0
2017-Nov-14 13:59N 56°05' W 003°07'0 0.0
2017-Nov-14 13:29N 56°05' W 003°07'0 0.0
2017-Nov-14 12:59N 56°05' W 003°07'0 0.0
2017-Nov-14 12:29N 56°05' W 003°07'0 0.0
2017-Nov-14 11:59N 56°05' W 003°07'0 0.1
2017-Nov-14 11:29N 56°05' W 003°07'0 0.0
2017-Nov-14 10:59N 56°05' W 003°07'0 0.0
2017-Nov-14 10:29N 56°05' W 003°07'0 0.1
2017-Nov-14 09:59N 56°05' W 003°07'0 0.0
2017-Nov-14 09:29N 56°05' W 003°07'0 0.0
2017-Nov-14 08:59N 56°05' W 003°07'0 0.1
2017-Nov-14 08:29N 56°05' W 003°07'0 0.0
2017-Nov-14 07:59N 56°05' W 003°07'0 0.1
2017-Nov-14 07:29N 56°05' W 003°07'0 0.8
2017-Nov-14 07:00N 56°05' W 003°06'4 8.2
2017-Nov-14 06:30N 56°05' W 002°59'613.0
2017-Nov-14 06:00N 56°07' W 002°48'612.9
2017-Nov-14 05:30N 56°08' W 002°36'713.2
2017-Nov-14 05:00N 56°07' W 002°25'713.5
2017-Nov-14 04:30N 56°06' W 002°13'612.9
2017-Nov-14 04:00N 56°04' W 002°02'612.8
2017-Nov-14 03:30N 55°60' W 001°53'612.3
2017-Nov-14 03:00N 55°55' W 001°45'612.4
2017-Nov-14 02:30N 55°51' W 001°37'1111.9
2017-Nov-14 01:37N 55°44' W 001°23'212.1
2017-Nov-14 01:29N 55°43' W 001°21'278 8.1
2017-Nov-12 15:05N 52°07' E 003°37'110.5
2017-Nov-12 15:00N 52°07' E 003°38'510.7
2017-Nov-12 14:30N 52°04' E 003°46'5 9.7
2017-Nov-12 14:00N 52°02' E 003°53'2 4.8
2017-Nov-12 13:30N 52°02' E 003°57'4 7.6
2017-Nov-12 13:00N 51°60' E 004°02'5 9.9
2017-Nov-12 12:30N 51°58' E 004°09'510.3
2017-Nov-12 12:00N 51°54' E 004°16'2 4.6
2017-Nov-12 11:30N 51°53' E 004°18'0 0.6
2017-Nov-12 10:58N 51°53' E 004°18'0 0.0
2017-Nov-12 10:28N 51°53' E 004°18'0 0.0
2017-Nov-12 09:58N 51°53' E 004°18'0 0.0
2017-Nov-12 09:28N 51°53' E 004°18'0 0.0
2017-Nov-12 08:55N 51°53' E 004°18'0 0.0
2017-Nov-12 08:25N 51°53' E 004°18'0 0.0
2017-Nov-12 08:01N 51°53' E 004°18'0 0.0
2017-Nov-12 07:25N 51°53' E 004°18'0 0.0
2017-Nov-12 06:52N 51°53' E 004°18'0 0.0
2017-Nov-12 06:31N 51°53' E 004°18'0 0.0
2017-Nov-12 05:58N 51°53' E 004°18'0 0.0
2017-Nov-12 05:31N 51°53' E 004°18'0 0.0
2017-Nov-12 05:01N 51°53' E 004°18'0 0.0
2017-Nov-12 04:31N 51°53' E 004°18'0 0.0
2017-Nov-12 03:55N 51°53' E 004°18'0 0.0
2017-Nov-12 03:19N 51°53' E 004°18'0 0.0
2017-Nov-12 03:00N 51°53' E 004°18'0 0.0
2017-Nov-12 02:30N 51°53' E 004°18'0 0.0
2017-Nov-12 01:55N 51°53' E 004°18'0 0.0
2017-Nov-12 01:30N 51°53' E 004°18'1 1.2
2017-Nov-12 01:00N 51°53' E 004°19'0 0.4
2017-Nov-12 00:30N 51°53' E 004°19'0 0.0
2017-Nov-11 23:57N 51°53' E 004°19'0 0.0
2017-Nov-11 23:30N 51°53' E 004°19'0 0.0
2017-Nov-11 22:57N 51°53' E 004°19'0 0.0
2017-Nov-11 22:21N 51°53' E 004°19'0 0.0
2017-Nov-11 21:57N 51°53' E 004°19'0 0.0
2017-Nov-11 21:21N 51°53' E 004°19'0 0.0
2017-Nov-11 20:57N 51°53' E 004°19'0 0.0
2017-Nov-11 20:30N 51°53' E 004°19'0 0.0
2017-Nov-11 20:00N 51°53' E 004°19'0 0.0
2017-Nov-11 19:27N 51°53' E 004°19'0 0.0
2017-Nov-11 18:57N 51°53' E 004°19'0 0.0
2017-Nov-11 18:21N 51°53' E 004°19'0 0.0
2017-Nov-11 17:57N 51°53' E 004°19'0 0.0
2017-Nov-11 17:27N 51°53' E 004°19'0 0.0
2017-Nov-11 16:51N 51°53' E 004°19'0 0.0
2017-Nov-11 16:21N 51°53' E 004°19'0 0.0
2017-Nov-11 15:57N 51°53' E 004°19'0 0.0
2017-Nov-11 15:21N 51°53' E 004°19'0 0.0
2017-Nov-11 14:51N 51°53' E 004°19'0 0.0
2017-Nov-11 14:21N 51°53' E 004°19'0 0.0
2017-Nov-11 14:00N 51°53' E 004°19'0 0.0
2017-Nov-11 13:27N 51°53' E 004°19'0 0.0
2017-Nov-11 12:51N 51°53' E 004°19'0 0.0
2017-Nov-11 12:27N 51°53' E 004°19'0 0.0
2017-Nov-11 11:57N 51°53' E 004°19'0 0.0
2017-Nov-11 11:15N 51°53' E 004°19'0 0.0
2017-Nov-11 10:51N 51°53' E 004°19'0 0.0
2017-Nov-11 10:27N 51°53' E 004°19'0 0.0
2017-Nov-11 09:57N 51°53' E 004°19'0 0.0
2017-Nov-11 09:27N 51°53' E 004°19'0 0.0
2017-Nov-11 09:00N 51°53' E 004°19'0 0.0
2017-Nov-11 08:30N 51°53' E 004°19'0 0.0
2017-Nov-11 07:57N 51°53' E 004°19'0 0.0
2017-Nov-11 07:27N 51°53' E 004°19'0 0.0
2017-Nov-11 06:57N 51°53' E 004°19'0 0.0
2017-Nov-11 06:21N 51°53' E 004°19'0 0.0
2017-Nov-11 05:57N 51°53' E 004°19'0 0.0
2017-Nov-11 05:21N 51°53' E 004°19'0 0.0
2017-Nov-11 05:00N 51°53' E 004°19'0 0.0
2017-Nov-11 04:00N 51°53' E 004°19'0 0.0
2017-Nov-11 03:27N 51°53' E 004°19'0 0.0
2017-Nov-11 02:54N 51°53' E 004°19'0 0.0
2017-Nov-11 02:30N 51°53' E 004°19'0 0.0
2017-Nov-11 01:51N 51°53' E 004°19'0 0.0
2017-Nov-11 01:15N 51°53' E 004°19'0 0.0
2017-Nov-11 00:57N 51°53' E 004°19'0 0.0
2017-Nov-11 00:30N 51°53' E 004°19'0 0.0
2017-Nov-10 23:45N 51°53' E 004°19'0 0.0
2017-Nov-10 23:30N 51°53' E 004°19'0 0.0
2017-Nov-10 22:39N 51°53' E 004°19'0 0.0
2017-Nov-10 22:27N 51°53' E 004°19'0 0.0
2017-Nov-10 21:51N 51°53' E 004°19'0 0.0
2017-Nov-10 21:30N 51°53' E 004°19'0 0.0
2017-Nov-10 21:00N 51°53' E 004°19'0 0.0
2017-Nov-10 20:21N 51°53' E 004°19'0 0.0
2017-Nov-10 19:51N 51°53' E 004°19'0 0.0
2017-Nov-10 19:27N 51°53' E 004°19'0 0.0
2017-Nov-10 18:45N 51°53' E 004°19'0 0.0
2017-Nov-10 18:30N 51°53' E 004°19'0 0.0
2017-Nov-10 17:51N 51°53' E 004°19'0 0.0
2017-Nov-10 17:27N 51°53' E 004°19'1 2.1
2017-Nov-10 17:00N 51°53' E 004°18'3 6.9
2017-Nov-10 16:30N 51°55' E 004°14'4 9.0
2017-Nov-10 16:00N 51°58' E 004°08'4 8.4
2017-Nov-10 15:30N 51°60' E 004°02'4 7.6
2017-Nov-10 15:00N 52°00' E 003°56'4 8.2
2017-Nov-10 14:30N 52°02' E 003°49'0 0.9
2017-Nov-10 14:00N 52°02' E 003°49'3 5.5
2017-Nov-10 13:30N 52°04' E 003°48'4 7.4
2017-Nov-10 13:00N 52°08' E 003°46'3 2.9
2017-Nov-10 12:03N 52°10' E 003°44'0 0.4
2017-Nov-10 11:57N 52°10' E 003°44'0 0.0
2017-Nov-10 11:30N 52°10' E 003°44'0 0.1
2017-Nov-10 10:57N 52°10' E 003°44'0 0.0
2017-Nov-10 10:24N 52°10' E 003°44'0 0.1
2017-Nov-10 10:00N 52°10' E 003°44'0 0.1
2017-Nov-10 08:39N 52°10' E 003°44'0 0.0
2017-Nov-10 07:21N 52°10' E 003°44'0 0.0
2017-Nov-10 06:39N 52°10' E 003°44'0 0.0
2017-Nov-10 06:15N 52°10' E 003°44'0 0.0
2017-Nov-10 06:00N 52°10' E 003°44'0 0.0
2017-Nov-10 05:30N 52°10' E 003°44'0 0.1
2017-Nov-10 03:03N 52°10' E 003°44'0 0.0
2017-Nov-09 20:09N 52°10' E 003°44'0 0.0
2017-Nov-09 19:51N 52°10' E 003°44'0 0.0
2017-Nov-09 18:45N 52°10' E 003°44'0 0.0
2017-Nov-09 16:45N 52°10' E 003°44'0 0.1
2017-Nov-09 16:24N 52°10' E 003°44'0 0.0
2017-Nov-09 11:03N 52°10' E 003°44'0 0.2
2017-Nov-09 10:36N 52°10' E 003°44'0 0.2
2017-Nov-09 10:30N 52°10' E 003°44'0 0.1
2017-Nov-09 10:00N 52°10' E 003°44'0 0.0
2017-Nov-09 07:33N 52°10' E 003°44'0 0.0
2017-Nov-09 05:42N 52°11' E 003°44'0 0.0
2017-Nov-09 03:54N 52°10' E 003°44'0 0.0
2017-Nov-08 17:27N 52°10' E 003°44'0 0.0
2017-Nov-08 16:45N 52°10' E 003°44'0 0.0
2017-Nov-08 04:03N 52°10' E 003°44'0 0.1
2017-Nov-08 03:42N 52°10' E 003°44'0 0.0
2017-Nov-08 03:27N 52°10' E 003°44'0 0.2
2017-Nov-08 02:06N 52°10' E 003°44'1 5.8
2017-Nov-08 01:59N 52°10' E 003°43'  

Dump ship's entire track history